createdAt,value
2022-09-30T00:02:00.070Z,8.39
2022-09-30T00:04:31.951Z,8.36
2022-09-30T00:07:03.950Z,8.34
2022-09-30T00:09:36.152Z,8.38
2022-09-30T00:12:08.766Z,8.37
2022-09-30T00:14:40.605Z,8.36
2022-09-30T00:17:12.556Z,8.36
2022-09-30T00:19:44.465Z,8.35
2022-09-30T00:22:16.362Z,8.34
2022-09-30T00:24:48.369Z,8.32
2022-09-30T00:27:20.762Z,8.28
2022-09-30T00:29:52.574Z,8.28
2022-09-30T00:32:24.492Z,8.32
2022-09-30T00:34:56.291Z,8.32
2022-09-30T00:37:28.118Z,8.32
2022-09-30T00:39:59.923Z,8.33
2022-09-30T00:42:31.855Z,8.34
2022-09-30T00:45:10.693Z,8.32
2022-09-30T00:47:54.550Z,8.29
2022-09-30T00:50:37.613Z,8.25
2022-09-30T00:53:15.188Z,8.22
2022-09-30T00:55:59.786Z,8.19
2022-09-30T00:58:37.246Z,8.22
2022-09-30T01:01:10.227Z,8.20
2022-09-30T01:03:46.237Z,8.18
2022-09-30T01:06:18.199Z,8.13
2022-09-30T01:08:50.464Z,8.08
2022-09-30T01:11:22.645Z,8.04
2022-09-30T01:13:58.834Z,8.00
2022-09-30T01:16:43.999Z,7.97
2022-09-30T01:19:34.040Z,7.94
2022-09-30T01:22:27.843Z,7.94
2022-09-30T01:25:26.383Z,7.93
2022-09-30T01:28:34.865Z,7.92
2022-09-30T01:31:22.385Z,7.89
2022-09-30T01:34:05.012Z,7.89
2022-09-30T01:36:56.702Z,7.87
2022-09-30T01:39:37.839Z,7.82
2022-09-30T01:42:16.368Z,7.77
2022-09-30T01:44:55.927Z,7.74
2022-09-30T01:47:32.508Z,7.77
2022-09-30T01:50:08.827Z,7.75
2022-09-30T01:52:47.439Z,7.75
2022-09-30T01:55:23.900Z,7.75
2022-09-30T01:58:02.905Z,7.73
2022-09-30T02:00:38.046Z,7.71
2022-09-30T02:03:14.392Z,7.67
2022-09-30T02:05:53.576Z,7.62
2022-09-30T02:08:30.394Z,7.59
2022-09-30T02:11:07.170Z,7.63
2022-09-30T02:13:46.850Z,7.63
2022-09-30T02:16:23.718Z,7.65
2022-09-30T02:18:59.423Z,7.65
2022-09-30T02:21:38.097Z,7.60
2022-09-30T02:24:14.000Z,7.58
2022-09-30T02:26:49.226Z,7.55
2022-09-30T02:29:26.080Z,7.53
2022-09-30T02:32:06.274Z,7.51
2022-09-30T02:34:41.937Z,7.53
2022-09-30T02:37:18.476Z,7.51
2022-09-30T02:39:55.329Z,7.50
2022-09-30T02:42:30.309Z,7.50
2022-09-30T02:45:08.005Z,7.49
2022-09-30T02:47:51.699Z,7.48
2022-09-30T02:50:32.718Z,7.45
2022-09-30T02:53:17.315Z,7.41
2022-09-30T02:56:12.804Z,7.40
2022-09-30T02:58:46.678Z,7.43
2022-09-30T03:01:19.594Z,7.39
2022-09-30T03:03:54.790Z,7.34
2022-09-30T03:06:27.265Z,7.30
2022-09-30T03:08:59.220Z,7.29
2022-09-30T03:11:32.349Z,7.28
2022-09-30T03:14:42.413Z,7.27
2022-09-30T03:17:41.094Z,7.22
2022-09-30T03:20:21.044Z,7.18
2022-09-30T03:23:19.556Z,7.17
2022-09-30T03:25:59.602Z,7.20
2022-09-30T03:28:36.752Z,7.19
2022-09-30T03:31:27.050Z,7.20
2022-09-30T03:34:08.887Z,7.21
2022-09-30T03:36:45.436Z,7.19
2022-09-30T03:39:24.386Z,7.17
2022-09-30T03:42:00.621Z,7.14
2022-09-30T03:44:38.209Z,7.11
2022-09-30T03:47:13.771Z,7.06
2022-09-30T03:49:52.270Z,7.02
2022-09-30T03:52:27.291Z,7.01
2022-09-30T03:54:59.020Z,7.05
2022-09-30T03:57:31.859Z,7.03
2022-09-30T04:00:05.631Z,7.01
2022-09-30T04:02:37.807Z,7.01
2022-09-30T04:05:10.790Z,6.99
2022-09-30T04:07:42.688Z,7.00
2022-09-30T04:10:15.215Z,6.95
2022-09-30T04:12:47.085Z,6.85
2022-09-30T04:15:19.057Z,6.81
2022-09-30T04:17:50.890Z,6.77
2022-09-30T04:20:22.989Z,6.77
2022-09-30T04:22:54.923Z,6.83
2022-09-30T04:25:27.181Z,6.84
2022-09-30T04:27:59.290Z,6.84
2022-09-30T04:30:33.524Z,6.85
2022-09-30T04:33:05.947Z,6.82
2022-09-30T04:35:39.349Z,6.82
2022-09-30T04:38:11.291Z,6.81
2022-09-30T04:40:43.190Z,6.80
2022-09-30T04:43:15.217Z,6.79
2022-09-30T04:45:47.959Z,6.78
2022-09-30T04:48:20.080Z,6.79
2022-09-30T04:50:52.559Z,6.83
2022-09-30T04:53:24.624Z,6.83
2022-09-30T04:56:01.550Z,6.83
2022-09-30T04:58:37.024Z,6.80
2022-09-30T05:01:11.705Z,6.78
2022-09-30T05:03:44.583Z,6.75
2022-09-30T05:06:16.690Z,6.71
2022-09-30T05:08:48.624Z,6.69
2022-09-30T05:11:23.045Z,6.67
2022-09-30T05:13:55.404Z,6.67
2022-09-30T05:16:28.141Z,6.76
2022-09-30T05:19:00.225Z,6.78
2022-09-30T05:21:32.069Z,6.81
2022-09-30T05:24:04.268Z,6.86
2022-09-30T05:26:36.197Z,6.85
2022-09-30T05:29:08.163Z,6.87
2022-09-30T05:31:40.171Z,6.88
2022-09-30T05:34:12.179Z,6.88
2022-09-30T05:36:44.860Z,6.87
2022-09-30T05:39:16.838Z,6.88
2022-09-30T05:41:49.383Z,6.86
2022-09-30T05:44:21.670Z,6.92
2022-09-30T05:46:53.603Z,6.97
2022-09-30T05:49:26.442Z,7.01
2022-09-30T05:51:58.251Z,7.03
2022-09-30T05:54:30.093Z,7.02
2022-09-30T05:57:02.259Z,6.99
2022-09-30T05:59:34.338Z,6.99
2022-09-30T06:02:06.590Z,6.99
2022-09-30T06:04:38.546Z,6.94
2022-09-30T06:07:10.754Z,6.92
2022-09-30T06:09:42.856Z,6.91
2022-09-30T06:12:14.777Z,6.98
2022-09-30T06:14:46.643Z,6.97
2022-09-30T06:17:18.767Z,6.97
2022-09-30T06:19:50.965Z,6.99
2022-09-30T06:22:22.796Z,7.01
2022-09-30T06:24:55.429Z,7.01
2022-09-30T06:27:28.354Z,7.01
2022-09-30T06:30:00.672Z,7.03
2022-09-30T06:32:32.537Z,7.02
2022-09-30T06:35:04.468Z,7.06
2022-09-30T06:37:37.953Z,7.19
2022-09-30T06:40:11.884Z,7.30
2022-09-30T06:42:43.821Z,7.41
2022-09-30T06:45:28.245Z,7.48
2022-09-30T06:48:05.535Z,7.55
2022-09-30T06:50:39.436Z,7.64
2022-09-30T06:53:12.245Z,7.74
2022-09-30T06:55:44.103Z,7.85
2022-09-30T06:58:18.182Z,7.98
2022-09-30T07:00:59.834Z,8.11
2022-09-30T07:03:34.810Z,8.34
2022-09-30T07:06:06.158Z,8.57
2022-09-30T07:08:39.164Z,8.78
2022-09-30T07:11:14.762Z,8.99
2022-09-30T07:13:47.549Z,9.22
2022-09-30T07:16:21.535Z,9.38
2022-09-30T07:18:54.035Z,9.57
2022-09-30T07:21:25.875Z,9.79
2022-09-30T07:23:59.010Z,9.97
2022-09-30T07:26:31.267Z,10.16
2022-09-30T07:29:03.140Z,10.37
2022-09-30T07:31:36.064Z,10.52
2022-09-30T07:34:09.936Z,10.67
2022-09-30T07:36:45.649Z,10.78
2022-09-30T07:39:17.451Z,10.89
2022-09-30T07:41:49.444Z,10.99
2022-09-30T07:44:21.622Z,11.11
2022-09-30T07:46:53.916Z,11.21
2022-09-30T07:49:25.919Z,11.35
2022-09-30T07:51:59.872Z,11.52
2022-09-30T07:54:37.365Z,11.76
2022-09-30T07:57:12.580Z,11.97
2022-09-30T07:59:45.147Z,12.12
2022-09-30T08:02:20.150Z,12.16
2022-09-30T08:04:52.130Z,12.19
2022-09-30T08:07:23.948Z,12.24
2022-09-30T08:09:55.799Z,12.26
2022-09-30T08:12:27.654Z,12.31
2022-09-30T08:14:59.459Z,12.41
2022-09-30T08:17:31.266Z,12.54
2022-09-30T08:20:03.541Z,12.69
2022-09-30T08:22:35.452Z,12.83
2022-09-30T08:25:08.723Z,12.99
2022-09-30T08:27:40.618Z,13.12
2022-09-30T08:30:14.747Z,13.34
2022-09-30T08:32:46.619Z,13.57
2022-09-30T08:35:18.626Z,13.75
2022-09-30T08:37:51.700Z,13.85
2022-09-30T08:40:27.426Z,13.90
2022-09-30T08:43:12.059Z,13.87
2022-09-30T08:45:53.952Z,13.86
2022-09-30T08:48:40.392Z,13.84
2022-09-30T08:51:29.267Z,13.80
2022-09-30T08:54:03.965Z,13.74
2022-09-30T08:56:37.644Z,13.64
2022-09-30T08:59:22.792Z,13.61
2022-09-30T09:01:59.971Z,13.63
2022-09-30T09:04:32.064Z,13.70
2022-09-30T09:07:11.763Z,13.80
2022-09-30T09:09:57.855Z,13.91
2022-09-30T09:12:42.756Z,14.06
2022-09-30T09:15:26.562Z,14.17
2022-09-30T09:18:23.642Z,14.22
2022-09-30T09:21:00.054Z,14.31
2022-09-30T09:23:34.481Z,14.39
2022-09-30T09:26:07.928Z,14.40
2022-09-30T09:28:49.156Z,14.37
2022-09-30T09:31:24.566Z,14.33
2022-09-30T09:34:02.317Z,14.34
2022-09-30T09:36:47.665Z,14.37
2022-09-30T09:39:41.023Z,14.44
2022-09-30T09:42:30.672Z,14.50
2022-09-30T09:45:04.289Z,14.59
2022-09-30T09:47:36.192Z,14.64
2022-09-30T09:50:19.426Z,14.67
2022-09-30T09:53:26.229Z,14.67
2022-09-30T09:56:00.360Z,14.65
2022-09-30T09:58:34.875Z,14.64
2022-09-30T10:01:32.441Z,14.64
2022-09-30T10:04:15.744Z,14.67
2022-09-30T10:07:00.277Z,14.70
2022-09-30T10:09:37.611Z,14.74
2022-09-30T10:12:30.830Z,14.78
2022-09-30T10:15:20.983Z,14.82
2022-09-30T10:17:58.394Z,14.85
2022-09-30T10:20:37.523Z,14.92
2022-09-30T10:23:19.931Z,15.02
2022-09-30T10:26:05.873Z,15.07
2022-09-30T10:28:48.878Z,15.13
2022-09-30T10:31:27.200Z,15.11
2022-09-30T10:34:05.465Z,15.11
2022-09-30T10:36:40.315Z,15.10
2022-09-30T10:39:24.787Z,15.09
2022-09-30T10:42:07.460Z,15.11
2022-09-30T10:44:46.865Z,15.17
2022-09-30T10:47:22.983Z,15.32
2022-09-30T10:49:59.382Z,15.44
2022-09-30T10:52:33.629Z,15.56
2022-09-30T10:55:14.813Z,15.64
2022-09-30T10:57:52.900Z,15.76
2022-09-30T11:00:27.426Z,15.86
2022-09-30T11:03:02.929Z,15.90
2022-09-30T11:05:39.710Z,15.90
2022-09-30T11:08:19.528Z,15.83
2022-09-30T11:11:00.392Z,15.73
2022-09-30T11:13:38.813Z,15.65
2022-09-30T11:16:18.740Z,15.65
2022-09-30T11:18:55.505Z,15.64
2022-09-30T11:21:36.559Z,15.50
2022-09-30T11:24:16.814Z,15.43
2022-09-30T11:26:57.477Z,15.42
2022-09-30T11:29:50.023Z,15.41
2022-09-30T11:32:47.025Z,15.45
2022-09-30T11:35:36.861Z,15.58
2022-09-30T11:38:18.895Z,15.72
2022-09-30T11:41:02.402Z,15.82
2022-09-30T11:43:46.542Z,15.86
2022-09-30T11:46:34.323Z,15.93
2022-09-30T11:49:25.601Z,15.95
2022-09-30T11:52:08.079Z,15.94
2022-09-30T11:54:56.946Z,15.98
2022-09-30T11:57:36.376Z,15.98
2022-09-30T12:00:17.395Z,16.00
2022-09-30T12:02:52.467Z,16.05
2022-09-30T12:05:28.726Z,16.08
2022-09-30T12:08:10.499Z,15.94
2022-09-30T12:10:48.356Z,15.77
2022-09-30T12:13:25.162Z,15.69
2022-09-30T12:16:00.019Z,15.72
2022-09-30T12:18:39.481Z,15.80
2022-09-30T12:21:22.980Z,15.86
2022-09-30T12:24:00.612Z,15.84
2022-09-30T12:26:33.187Z,15.74
2022-09-30T12:29:27.212Z,15.65
2022-09-30T12:32:36.274Z,15.55
2022-09-30T12:35:38.352Z,15.61
2022-09-30T12:38:24.488Z,15.66
2022-09-30T12:41:04.022Z,15.69
2022-09-30T12:44:03.532Z,15.70
2022-09-30T12:47:09.937Z,15.69
2022-09-30T12:49:42.899Z,15.64
2022-09-30T12:52:20.958Z,15.52
2022-09-30T12:54:57.035Z,15.40
2022-09-30T12:57:33.212Z,15.27
2022-09-30T13:00:14.910Z,15.15
2022-09-30T13:02:50.710Z,15.07
2022-09-30T13:05:59.407Z,14.99
2022-09-30T13:08:49.444Z,14.90
2022-09-30T13:11:39.160Z,14.83
2022-09-30T13:14:32.996Z,14.78
2022-09-30T13:17:27.748Z,14.75
2022-09-30T13:19:59.558Z,14.74
2022-09-30T13:22:45.344Z,14.73
2022-09-30T13:25:18.480Z,14.69
2022-09-30T13:27:54.099Z,14.65
2022-09-30T13:30:41.452Z,14.61
2022-09-30T13:33:43.750Z,14.57
2022-09-30T13:36:30.803Z,14.56
2022-09-30T13:39:22.678Z,14.53
2022-09-30T13:42:14.056Z,14.50
2022-09-30T13:45:01.256Z,14.49
2022-09-30T13:47:40.418Z,14.47
2022-09-30T13:50:19.203Z,14.51
2022-09-30T13:52:55.551Z,14.56
2022-09-30T13:55:33.483Z,14.60
2022-09-30T13:58:24.767Z,14.60
2022-09-30T14:01:07.371Z,14.62
2022-09-30T14:03:54.388Z,14.65
2022-09-30T14:06:37.039Z,14.65
2022-09-30T14:09:26.372Z,14.63
2022-09-30T14:12:12.461Z,14.60
2022-09-30T14:15:04.313Z,14.57
2022-09-30T14:17:52.162Z,14.52
2022-09-30T14:20:36.793Z,14.45
2022-09-30T14:23:15.891Z,14.36
2022-09-30T14:26:05.754Z,14.30
2022-09-30T14:28:42.840Z,14.28
2022-09-30T14:31:16.409Z,14.27
2022-09-30T14:33:52.174Z,14.27
2022-09-30T14:36:25.428Z,14.26
2022-09-30T14:39:03.755Z,14.25
2022-09-30T14:41:35.856Z,14.24
2022-09-30T14:44:08.816Z,14.20
2022-09-30T14:46:47.229Z,14.19
2022-09-30T14:49:24.226Z,14.15
2022-09-30T14:51:56.172Z,14.11
2022-09-30T14:54:30.010Z,14.06
2022-09-30T14:57:04.311Z,14.03
2022-09-30T14:59:40.961Z,13.98
2022-09-30T15:02:20.427Z,13.94
2022-09-30T15:04:58.108Z,13.91
2022-09-30T15:07:33.500Z,13.87
2022-09-30T15:10:06.022Z,13.83
2022-09-30T15:12:38.886Z,13.80
2022-09-30T15:15:27.883Z,13.76
2022-09-30T15:17:59.944Z,13.73
2022-09-30T15:20:34.841Z,13.71
2022-09-30T15:23:17.461Z,13.69
2022-09-30T15:25:49.690Z,13.67
2022-09-30T15:28:21.683Z,13.63
2022-09-30T15:30:57.677Z,13.59
2022-09-30T15:33:32.491Z,13.59
2022-09-30T15:36:08.548Z,13.60
2022-09-30T15:38:40.746Z,13.55
2022-09-30T15:41:13.655Z,13.53
2022-09-30T15:43:50.872Z,13.49
2022-09-30T15:46:33.921Z,13.46
2022-09-30T15:49:29.159Z,13.43
2022-09-30T15:52:29.539Z,13.39
2022-09-30T15:55:01.464Z,13.36
2022-09-30T15:57:48.098Z,13.33
2022-09-30T16:00:38.960Z,13.28
2022-09-30T16:03:27.632Z,13.21
2022-09-30T16:06:11.043Z,13.13
2022-09-30T16:08:45.794Z,13.11
2022-09-30T16:11:24.838Z,13.14
2022-09-30T16:13:58.148Z,13.11
2022-09-30T16:16:34.675Z,13.07
2022-09-30T16:19:07.626Z,13.03
2022-09-30T16:21:45.502Z,13.00
2022-09-30T16:24:44.934Z,12.96
2022-09-30T16:27:26.167Z,12.89
2022-09-30T16:29:59.046Z,12.80
2022-09-30T16:32:41.152Z,12.73
2022-09-30T16:35:20.823Z,12.72
2022-09-30T16:37:59.142Z,12.66
2022-09-30T16:40:32.787Z,12.58
2022-09-30T16:43:07.590Z,12.51
2022-09-30T16:45:41.700Z,12.44
2022-09-30T16:48:17.997Z,12.36
2022-09-30T16:51:03.543Z,12.26
2022-09-30T16:53:35.472Z,12.16
2022-09-30T16:56:08.095Z,12.09
2022-09-30T16:58:39.945Z,12.05
2022-09-30T17:01:19.725Z,12.00
2022-09-30T17:03:53.483Z,11.94
2022-09-30T17:06:30.279Z,11.88
2022-09-30T17:09:02.821Z,11.80
2022-09-30T17:11:38.104Z,11.74
2022-09-30T17:14:10.059Z,11.69
2022-09-30T17:16:41.995Z,11.65
2022-09-30T17:19:14.226Z,11.62
2022-09-30T17:21:46.129Z,11.63
2022-09-30T17:24:18.001Z,11.60
2022-09-30T17:26:50.996Z,11.58
2022-09-30T17:29:41.714Z,11.56
2022-09-30T17:32:14.106Z,11.50
2022-09-30T17:34:46.050Z,11.46
2022-09-30T17:37:19.066Z,11.41
2022-09-30T17:39:50.925Z,11.35
2022-09-30T17:42:42.014Z,11.30
2022-09-30T17:45:14.245Z,11.25
2022-09-30T17:47:46.223Z,11.24
2022-09-30T17:50:22.099Z,11.21
2022-09-30T17:52:56.075Z,11.18
2022-09-30T17:55:29.110Z,11.16
2022-09-30T17:58:08.299Z,11.11
2022-09-30T18:00:40.687Z,11.09
2022-09-30T18:03:12.731Z,11.04
2022-09-30T18:05:45.624Z,10.98
2022-09-30T18:08:19.066Z,10.94
2022-09-30T18:10:52.217Z,10.95
2022-09-30T18:13:24.180Z,10.93
2022-09-30T18:15:59.706Z,10.91
2022-09-30T18:18:32.068Z,10.90
2022-09-30T18:21:03.963Z,10.87
2022-09-30T18:23:35.829Z,10.85
2022-09-30T18:26:07.926Z,10.84
2022-09-30T18:28:39.918Z,10.83
2022-09-30T18:31:11.817Z,10.83
2022-09-30T18:33:43.693Z,10.85
2022-09-30T18:36:15.563Z,10.85
2022-09-30T18:38:47.450Z,10.84
2022-09-30T18:41:19.478Z,10.80
2022-09-30T18:43:59.584Z,10.77
2022-09-30T18:46:32.246Z,10.75
2022-09-30T18:49:04.679Z,10.71
2022-09-30T18:51:36.741Z,10.67
2022-09-30T18:54:08.919Z,10.67
2022-09-30T18:56:40.767Z,10.63
2022-09-30T18:59:18.257Z,10.61
2022-09-30T19:01:52.615Z,10.58
2022-09-30T19:04:24.505Z,10.53
2022-09-30T19:06:56.358Z,10.48
2022-09-30T19:09:28.477Z,10.43
2022-09-30T19:12:01.816Z,10.39
2022-09-30T19:14:34.547Z,10.36
2022-09-30T19:17:06.412Z,10.39
2022-09-30T19:19:41.393Z,10.37
2022-09-30T19:22:14.338Z,10.35
2022-09-30T19:24:46.298Z,10.30
2022-09-30T19:27:22.587Z,10.27
2022-09-30T19:29:59.118Z,10.23
2022-09-30T19:32:35.299Z,10.20
2022-09-30T19:35:10.520Z,10.16
2022-09-30T19:37:55.741Z,10.15
2022-09-30T19:43:09.722Z,10.17
2022-09-30T19:45:41.632Z,10.16
2022-09-30T19:48:13.519Z,10.14
2022-09-30T19:50:45.623Z,10.12
2022-09-30T19:53:27.925Z,10.11
2022-09-30T19:56:07.997Z,10.07
2022-09-30T19:58:40.661Z,10.04
2022-09-30T20:01:13.768Z,10.08
2022-09-30T20:03:45.836Z,10.08
2022-09-30T20:06:18.961Z,10.09
2022-09-30T20:08:54.674Z,10.09
2022-09-30T20:11:27.370Z,10.08
2022-09-30T20:14:14.277Z,10.08
2022-09-30T20:16:47.730Z,10.08
2022-09-30T20:19:20.623Z,10.08
2022-09-30T20:21:54.028Z,10.05
2022-09-30T20:24:26.165Z,10.03
2022-09-30T20:26:58.104Z,10.03
2022-09-30T20:29:30.498Z,10.02
2022-09-30T20:32:02.698Z,10.03
2022-09-30T20:34:38.655Z,10.03
2022-09-30T20:37:11.342Z,10.00
2022-09-30T20:39:43.323Z,9.98
2022-09-30T20:42:15.323Z,9.96
2022-09-30T20:44:47.209Z,9.93
2022-09-30T20:47:19.528Z,9.89
2022-09-30T20:49:51.408Z,9.88
2022-09-30T20:52:23.391Z,9.91
2022-09-30T20:54:57.062Z,9.91
2022-09-30T20:57:30.381Z,9.91
2022-09-30T21:00:02.729Z,9.91
2022-09-30T21:02:34.779Z,9.89
2022-09-30T21:05:09.325Z,9.87
2022-09-30T21:07:41.554Z,9.85
2022-09-30T21:10:13.671Z,9.82
2022-09-30T21:12:46.396Z,9.79
2022-09-30T21:15:19.214Z,9.77
2022-09-30T21:17:52.898Z,9.80
2022-09-30T21:20:25.174Z,9.80
2022-09-30T21:22:57.205Z,9.80
2022-09-30T21:25:29.238Z,9.81
2022-09-30T21:28:01.506Z,9.78
2022-09-30T21:30:33.977Z,9.75
2022-09-30T21:33:06.589Z,9.74
2022-09-30T21:35:38.496Z,9.73
2022-09-30T21:38:10.423Z,9.71
2022-09-30T21:40:42.412Z,9.70
2022-09-30T21:43:15.052Z,9.75
2022-09-30T21:45:47.190Z,9.76
2022-09-30T21:48:21.065Z,9.75
2022-09-30T21:50:53.355Z,9.76
2022-09-30T21:53:27.376Z,9.76
2022-09-30T21:56:01.125Z,9.73
2022-09-30T21:58:36.386Z,9.73
2022-09-30T22:01:09.491Z,9.73
2022-09-30T22:03:41.711Z,9.70
2022-09-30T22:06:14.632Z,9.69
2022-09-30T22:08:46.730Z,9.72
2022-09-30T22:11:22.622Z,9.73
2022-09-30T22:13:56.279Z,9.73
2022-09-30T22:16:31.187Z,9.70
2022-09-30T22:19:05.653Z,9.69
2022-09-30T22:21:38.394Z,9.68
2022-09-30T22:24:10.763Z,9.66
2022-09-30T22:26:44.670Z,9.67
2022-09-30T22:29:16.659Z,9.72
2022-09-30T22:31:48.662Z,9.73
2022-09-30T22:34:38.498Z,9.72
2022-09-30T22:37:28.881Z,9.70
2022-09-30T22:40:01.142Z,9.71
2022-09-30T22:42:35.775Z,9.72
2022-09-30T22:45:09.213Z,9.71
2022-09-30T22:47:41.648Z,9.73
2022-09-30T22:50:14.071Z,9.79
2022-09-30T22:52:46.539Z,9.77
2022-09-30T22:55:18.414Z,9.78
2022-09-30T22:57:50.272Z,9.82
2022-09-30T23:00:22.238Z,9.83
2022-09-30T23:02:55.571Z,9.84
2022-09-30T23:05:27.859Z,9.84
2022-09-30T23:07:59.737Z,9.84
2022-09-30T23:10:31.631Z,9.83
2022-09-30T23:13:03.532Z,9.88
2022-09-30T23:15:35.664Z,9.90
2022-09-30T23:18:07.661Z,9.93
2022-09-30T23:20:41.014Z,9.95
2022-09-30T23:23:12.909Z,9.94
2022-09-30T23:25:44.966Z,9.94
2022-09-30T23:28:16.850Z,9.94
2022-09-30T23:30:48.763Z,9.94
2022-09-30T23:33:20.685Z,9.91
2022-09-30T23:35:52.578Z,9.90
2022-09-30T23:38:27.750Z,9.94
2022-09-30T23:41:00.151Z,9.94
2022-09-30T23:43:34.238Z,9.94
2022-09-30T23:46:07.456Z,9.93
2022-09-30T23:48:39.533Z,9.91
2022-09-30T23:51:11.617Z,9.92
2022-09-30T23:53:43.653Z,9.91
2022-09-30T23:56:17.697Z,9.90
2022-09-30T23:58:50.584Z,9.91
